Time;durP1;ratioP1;P1;durP2;ratioP2;P2;SDS_P1;SDS_P2;PMS_P1;PMS_P2;Temp;Humidity;BMP_temperature;BMP_pressure;BME280_temperature;BME280_humidity;BME280_pressure;Samples;Min_cycle;Max_cycle;Signal;HPM_P1;HPM_P2
2022/06/11 00:00:26;;;;;;;1.80;1.70;;;;;;;;;;5007969;28;20195;-32
2022/06/11 00:02:53;;;;;;;3.17;2.10;;;;;;;;;;4999948;28;20206;-34
2022/06/11 00:05:22;;;;;;;2.60;2.40;;;;;;;;;;5011232;28;20200;-37
2022/06/11 00:07:49;;;;;;;2.23;1.90;;;;;;;;;;5011388;28;20223;-37
2022/06/11 00:10:17;;;;;;;2.73;2.10;;;;;;;;;;5005653;28;20625;-36
2022/06/11 00:12:44;;;;;;;2.20;2.00;;;;;;;;;;4999961;28;20207;-32
2022/06/11 00:15:12;;;;;;;3.20;1.83;;;;;;;;;;5005621;28;20238;-33
2022/06/11 00:17:39;;;;;;;2.50;2.00;;;;;;;;;;5002507;28;20312;-29
2022/06/11 00:20:06;;;;;;;3.93;1.90;;;;;;;;;;5009408;28;20293;-35
2022/06/11 00:22:35;;;;;;;3.60;1.57;;;;;;;;;;5021915;28;20210;-31
2022/06/11 00:25:02;;;;;;;4.60;1.93;;;;;;;;;;5006066;28;20240;-36
2022/06/11 00:27:29;;;;;;;4.27;2.20;;;;;;;;;;5010309;28;20227;-32
2022/06/11 00:29:56;;;;;;;2.70;2.00;;;;;;;;;;5003410;28;20239;-36
2022/06/11 00:32:24;;;;;;;1.80;1.70;;;;;;;;;;5007311;28;20203;-36
2022/06/11 00:34:51;;;;;;;1.87;1.77;;;;;;;;;;5005638;28;20202;-35
2022/06/11 00:37:20;;;;;;;4.37;2.10;;;;;;;;;;5006497;28;20223;-35
2022/06/11 00:39:48;;;;;;;1.97;1.87;;;;;;;;;;5010771;28;20211;-36
2022/06/11 00:42:16;;;;;;;2.87;1.53;;;;;;;;;;5010642;28;20203;-37
2022/06/11 00:44:44;;;;;;;1.90;1.80;;;;;;;;;;5000143;28;20203;-33
2022/06/11 00:47:15;;;;;;;3.27;2.00;;;;;;;;;;5001529;28;20245;-36
2022/06/11 00:49:44;;;;;;;1.97;1.77;;;;;;;;;;5003448;28;20428;-37
2022/06/11 00:52:17;;;;;;;2.00;1.50;;;;;;;;;;5023078;28;20198;-34
2022/06/11 00:54:46;;;;;;;2.20;1.53;;;;;;;;;;5005878;28;20660;-31
2022/06/11 00:57:16;;;;;;;2.60;1.90;;;;;;;;;;5007687;28;20229;-30
2022/06/11 00:59:44;;;;;;;2.30;1.93;;;;;;;;;;5003702;28;20207;-34
2022/06/11 01:02:12;;;;;;;2.63;2.10;;;;;;;;;;5000118;28;20234;-36
2022/06/11 01:04:41;;;;;;;1.97;1.83;;;;;;;;;;5002800;28;20207;-34
2022/06/11 01:07:18;;;;;;;2.27;2.00;;;;;;;;;;5006136;28;20223;-38
2022/06/11 01:09:50;;;;;;;2.00;1.90;;;;;;;;;;5005931;28;20214;-36
2022/06/11 01:12:23;;;;;;;2.37;1.73;;;;;;;;;;4999601;28;20478;-31
2022/06/11 01:14:54;;;;;;;2.33;2.17;;;;;;;;;;5008631;28;20222;-36
2022/06/11 01:17:27;;;;;;;2.93;1.63;;;;;;;;;;5001948;28;20238;-33
2022/06/11 01:20:09;;;;;;;2.80;2.10;;;;;;;;;;5008370;28;20206;-31
2022/06/11 01:22:48;;;;;;;2.53;2.10;;;;;;;;;;5013403;28;20198;-33
2022/06/11 01:25:23;;;;;;;2.77;1.90;;;;;;;;;;5001577;28;20203;-36
2022/06/11 01:28:00;;;;;;;1.77;1.63;;;;;;;;;;5009516;28;20223;-36
2022/06/11 01:30:29;;;;;;;2.40;2.20;;;;;;;;;;5009377;28;20226;-32
2022/06/11 01:33:00;;;;;;;1.83;1.67;;;;;;;;;;4996147;28;20200;-34
2022/06/11 01:35:34;;;;;;;2.43;2.17;;;;;;;;;;5008804;28;20199;-34
2022/06/11 01:38:04;;;;;;;2.03;1.93;;;;;;;;;;5012219;28;20210;-34
2022/06/11 01:40:35;;;;;;;2.20;2.00;;;;;;;;;;5001720;28;20196;-30
2022/06/11 01:43:05;;;;;;;3.00;1.90;;;;;;;;;;5010865;28;20199;-32
2022/06/11 01:45:35;;;;;;;4.00;1.97;;;;;;;;;;4996166;28;20259;-36
2022/06/11 01:48:03;;;;;;;2.03;1.93;;;;;;;;;;5001969;28;20199;-32
2022/06/11 01:55:44;;;;;;;2.13;1.97;;;;;;;;;;5004885;28;20680;-30
2022/06/11 01:58:25;;;;;;;2.23;1.77;;;;;;;;;;4993147;28;20227;-31
2022/06/11 02:00:58;;;;;;;2.13;1.60;;;;;;;;;;4997786;28;20199;-32
2022/06/11 02:03:33;;;;;;;2.10;1.57;;;;;;;;;;4996298;28;20200;-32
2022/06/11 02:06:12;;;;;;;2.53;1.40;;;;;;;;;;4991045;28;20220;-30
2022/06/11 02:08:47;;;;;;;1.70;1.60;;;;;;;;;;4993018;28;20207;-33
2022/06/11 02:11:16;;;;;;;1.60;1.50;;;;;;;;;;5006247;28;20263;-31
2022/06/11 02:13:46;;;;;;;1.97;1.80;;;;;;;;;;5000571;28;20239;-28
2022/06/11 02:16:19;;;;;;;2.00;1.80;;;;;;;;;;5004637;28;20219;-28
2022/06/11 02:18:47;;;;;;;4.60;2.30;;;;;;;;;;4999014;28;20211;-27
2022/06/11 02:21:17;;;;;;;1.90;1.80;;;;;;;;;;5004083;28;20203;-28
2022/06/11 02:23:46;;;;;;;3.30;2.00;;;;;;;;;;4991387;28;20215;-29
2022/06/11 02:26:16;;;;;;;2.30;2.20;;;;;;;;;;4994104;28;20226;-30
2022/06/11 02:28:45;;;;;;;2.10;2.00;;;;;;;;;;5009835;28;20430;-33
2022/06/11 02:31:16;;;;;;;1.93;1.80;;;;;;;;;;5007708;28;20277;-30
2022/06/11 02:33:44;;;;;;;3.40;1.53;;;;;;;;;;5000786;28;20204;-28
2022/06/11 02:36:17;;;;;;;3.07;1.90;;;;;;;;;;5006107;28;20227;-32
2022/06/11 02:38:44;;;;;;;2.20;1.70;;;;;;;;;;5013683;28;20206;-30
2022/06/11 02:41:13;;;;;;;2.40;2.10;;;;;;;;;;5013052;28;20202;-29
2022/06/11 02:43:40;;;;;;;2.30;2.10;;;;;;;;;;5022924;28;20203;-31
2022/06/11 02:48:51;;;;;;;2.17;1.70;;;;;;;;;;4996540;28;20247;-27
2022/06/11 02:51:18;;;;;;;2.10;1.80;;;;;;;;;;4998797;28;20270;-33
2022/06/11 02:53:46;;;;;;;2.50;1.93;;;;;;;;;;5009205;28;20217;-30
2022/06/11 02:56:13;;;;;;;2.60;1.80;;;;;;;;;;4990814;28;20227;-30
2022/06/11 02:58:40;;;;;;;1.90;1.80;;;;;;;;;;5004119;28;20578;-28
2022/06/11 03:01:08;;;;;;;3.97;2.00;;;;;;;;;;4990362;28;20210;-29
2022/06/11 03:03:35;;;;;;;1.80;1.70;;;;;;;;;;4991942;28;20200;-31
2022/06/11 03:06:04;;;;;;;3.00;2.00;;;;;;;;;;4994961;28;20223;-30
2022/06/11 03:08:32;;;;;;;3.90;1.80;;;;;;;;;;5009927;28;20199;-29
2022/06/11 03:10:59;;;;;;;5.50;2.23;;;;;;;;;;4997413;28;20230;-31
2022/06/11 03:13:27;;;;;;;1.97;1.80;;;;;;;;;;5002678;28;20211;-31
2022/06/11 03:15:55;;;;;;;2.00;1.90;;;;;;;;;;5009993;28;20223;-30
2022/06/11 03:18:23;;;;;;;2.83;1.57;;;;;;;;;;4991031;28;20206;-29
2022/06/11 03:20:51;;;;;;;1.90;1.73;;;;;;;;;;5009119;28;20261;-31
2022/06/11 03:23:20;;;;;;;3.13;1.90;;;;;;;;;;5009880;28;20477;-29
2022/06/11 03:25:47;;;;;;;2.30;2.10;;;;;;;;;;4998037;28;20231;-29
2022/06/11 03:28:16;;;;;;;1.80;1.70;;;;;;;;;;4997513;28;20214;-26
2022/06/11 03:30:43;;;;;;;2.73;2.20;;;;;;;;;;4990873;28;20206;-28
2022/06/11 03:33:10;;;;;;;2.63;2.00;;;;;;;;;;5003313;28;20214;-29
2022/06/11 03:35:38;;;;;;;2.73;1.90;;;;;;;;;;5004550;28;20210;-29
2022/06/11 03:38:07;;;;;;;2.00;1.90;;;;;;;;;;5016178;28;20238;-31
2022/06/11 03:40:35;;;;;;;2.90;2.00;;;;;;;;;;5012246;28;20812;-27
2022/06/11 03:43:03;;;;;;;2.07;1.70;;;;;;;;;;5013359;28;20207;-29
2022/06/11 03:45:30;;;;;;;2.00;1.90;;;;;;;;;;5015507;28;20469;-29
2022/06/11 03:47:57;;;;;;;4.87;1.90;;;;;;;;;;5003057;28;20358;-28
2022/06/11 03:50:26;;;;;;;3.93;2.33;;;;;;;;;;5011149;28;20207;-26
2022/06/11 03:52:53;;;;;;;2.63;2.00;;;;;;;;;;5015614;28;20230;-31
2022/06/11 03:55:21;;;;;;;2.00;1.80;;;;;;;;;;5002306;28;20582;-30
2022/06/11 03:57:50;;;;;;;2.27;1.80;;;;;;;;;;5007627;28;20227;-29
2022/06/11 04:01:14;;;;;;;1.70;1.60;;;;;;;;;;5010175;28;20206;-28
2022/06/11 04:03:06;;;;;;;3.37;1.80;;;;;;;;;;5006772;28;20552;-30
2022/06/11 04:05:33;;;;;;;2.73;1.80;;;;;;;;;;5004163;28;20195;-28
2022/06/11 04:08:00;;;;;;;2.77;1.63;;;;;;;;;;5013121;28;20210;-26
2022/06/11 04:10:28;;;;;;;1.57;1.47;;;;;;;;;;5008151;28;20196;-31
2022/06/11 04:12:57;;;;;;;2.17;1.70;;;;;;;;;;5001654;28;20283;-32
2022/06/11 04:15:24;;;;;;;2.13;2.00;;;;;;;;;;4994978;28;20200;-26
2022/06/11 04:17:52;;;;;;;2.10;2.00;;;;;;;;;;5005703;28;20203;-29
2022/06/11 04:20:19;;;;;;;1.90;1.80;;;;;;;;;;5005106;28;20206;-27
2022/06/11 04:22:46;;;;;;;1.90;1.80;;;;;;;;;;4995000;28;20215;-26
2022/06/11 04:25:14;;;;;;;2.23;2.03;;;;;;;;;;4996121;28;20207;-27
2022/06/11 04:27:41;;;;;;;1.90;1.80;;;;;;;;;;5005629;28;20230;-31
2022/06/11 04:30:12;;;;;;;2.57;1.90;;;;;;;;;;4994746;28;20204;-31
2022/06/11 04:32:39;;;;;;;1.90;1.50;;;;;;;;;;4998300;28;20239;-28
2022/06/11 04:35:07;;;;;;;2.37;1.90;;;;;;;;;;5007495;28;20199;-30
2022/06/11 04:37:34;;;;;;;2.10;1.90;;;;;;;;;;4997906;28;20231;-30
2022/06/11 04:40:02;;;;;;;1.90;1.80;;;;;;;;;;4997992;28;20191;-31
2022/06/11 04:42:29;;;;;;;2.87;1.87;;;;;;;;;;5007092;28;20199;-27
2022/06/11 04:44:57;;;;;;;1.90;1.80;;;;;;;;;;4996607;28;20564;-31
2022/06/11 04:47:27;;;;;;;2.20;2.00;;;;;;;;;;5004784;28;20219;-28
2022/06/11 04:49:55;;;;;;;1.93;1.73;;;;;;;;;;5007509;28;20247;-26
2022/06/11 04:52:22;;;;;;;1.90;1.80;;;;;;;;;;5008617;28;20434;-30
2022/06/11 04:54:50;;;;;;;2.13;2.03;;;;;;;;;;5013965;28;20213;-31
2022/06/11 04:57:17;;;;;;;2.17;2.00;;;;;;;;;;5008954;28;20223;-28
2022/06/11 04:59:44;;;;;;;2.50;2.30;;;;;;;;;;5002197;28;20200;-31
2022/06/11 05:02:17;;;;;;;3.00;2.47;;;;;;;;;;4992002;28;20192;-30
2022/06/11 05:04:46;;;;;;;2.33;2.13;;;;;;;;;;5007910;28;20664;-27
2022/06/11 05:07:13;;;;;;;2.37;2.17;;;;;;;;;;5006982;28;20219;-30
2022/06/11 05:09:40;;;;;;;2.60;2.40;;;;;;;;;;5001068;28;20211;-30
2022/06/11 05:12:08;;;;;;;2.37;2.20;;;;;;;;;;5013648;28;20215;-29
2022/06/11 05:14:35;;;;;;;2.37;2.23;;;;;;;;;;5013697;28;20231;-30
2022/06/11 05:17:03;;;;;;;2.40;2.20;;;;;;;;;;5010897;28;20250;-28
2022/06/11 05:19:30;;;;;;;3.23;2.37;;;;;;;;;;4993019;28;20224;-30
2022/06/11 05:21:59;;;;;;;2.47;2.37;;;;;;;;;;5001984;28;20200;-31
2022/06/11 05:24:26;;;;;;;2.33;2.23;;;;;;;;;;4996342;28;20565;-29
2022/06/11 05:26:54;;;;;;;2.17;2.03;;;;;;;;;;5006027;28;20245;-28
2022/06/11 05:29:23;;;;;;;2.37;2.10;;;;;;;;;;4998173;28;20210;-30
2022/06/11 05:31:51;;;;;;;3.50;2.77;;;;;;;;;;5003851;28;20229;-29
2022/06/11 05:34:18;;;;;;;3.57;2.47;;;;;;;;;;5002700;28;20203;-27
2022/06/11 05:36:45;;;;;;;3.13;2.63;;;;;;;;;;5003300;28;20222;-30
2022/06/11 05:39:14;;;;;;;3.30;2.43;;;;;;;;;;5011450;28;20293;-28
2022/06/11 05:41:41;;;;;;;3.70;2.30;;;;;;;;;;4999058;28;20207;-33
2022/06/11 05:44:08;;;;;;;2.20;2.00;;;;;;;;;;5009037;28;20203;-28
2022/06/11 05:46:36;;;;;;;3.53;2.23;;;;;;;;;;4996791;28;20233;-28
2022/06/11 05:49:05;;;;;;;3.37;2.37;;;;;;;;;;5001197;28;20199;-32
2022/06/11 05:51:33;;;;;;;2.57;2.17;;;;;;;;;;5008198;28;20735;-30
2022/06/11 05:54:02;;;;;;;2.77;2.10;;;;;;;;;;5013454;28;20240;-27
2022/06/11 05:56:31;;;;;;;7.43;2.53;;;;;;;;;;5005698;28;20224;-33
2022/06/11 05:59:01;;;;;;;2.08;1.98;;;;;;;;;;5000850;28;20200;-29
2022/06/11 06:01:30;;;;;;;2.57;2.30;;;;;;;;;;5009137;28;20649;-29
2022/06/11 06:03:57;;;;;;;2.33;2.13;;;;;;;;;;4995592;28;20203;-29
2022/06/11 06:06:24;;;;;;;2.17;1.92;;;;;;;;;;5001771;28;20219;-28
2022/06/11 06:08:51;;;;;;;2.40;2.20;;;;;;;;;;4993692;28;20211;-32
2022/06/11 06:11:18;;;;;;;2.97;2.33;;;;;;;;;;4999374;28;20199;-28
2022/06/11 06:13:47;;;;;;;3.05;2.03;;;;;;;;;;4994288;28;20223;-31
2022/06/11 06:16:14;;;;;;;5.32;2.40;;;;;;;;;;5004556;28;20253;-29
2022/06/11 06:18:41;;;;;;;2.28;2.08;;;;;;;;;;4996971;28;20211;-29
2022/06/11 06:21:09;;;;;;;3.38;2.10;;;;;;;;;;5012577;28;20197;-30
2022/06/11 06:23:36;;;;;;;1.90;1.80;;;;;;;;;;5012642;28;20199;-29
2022/06/11 06:26:03;;;;;;;2.10;2.00;;;;;;;;;;5001612;28;20234;-27
2022/06/11 06:28:31;;;;;;;3.47;1.90;;;;;;;;;;5008603;28;20201;-31
2022/06/11 06:31:02;;;;;;;3.08;2.10;;;;;;;;;;4993225;28;20893;-29
2022/06/11 06:33:30;;;;;;;3.00;1.90;;;;;;;;;;4994495;28;20212;-27
2022/06/11 06:35:57;;;;;;;2.80;2.00;;;;;;;;;;5008385;28;20246;-27
2022/06/11 06:38:24;;;;;;;2.38;2.10;;;;;;;;;;5012120;28;20203;-29
2022/06/11 06:40:51;;;;;;;1.85;1.75;;;;;;;;;;5006721;28;20239;-28
2022/06/11 06:43:19;;;;;;;2.97;2.00;;;;;;;;;;4996364;28;20201;-29
2022/06/11 06:45:46;;;;;;;1.95;1.73;;;;;;;;;;4994458;28;20225;-28
2022/06/11 06:48:15;;;;;;;2.67;2.10;;;;;;;;;;4997826;28;20736;-30
2022/06/11 06:50:42;;;;;;;4.35;2.00;;;;;;;;;;5002744;28;20204;-31
2022/06/11 06:53:10;;;;;;;2.80;1.90;;;;;;;;;;4997876;28;20223;-29
2022/06/11 06:55:37;;;;;;;1.70;1.60;;;;;;;;;;5001000;28;20210;-26
2022/06/11 06:58:04;;;;;;;2.20;2.00;;;;;;;;;;5003981;28;20807;-30
2022/06/11 07:00:31;;;;;;;2.13;1.85;;;;;;;;;;5012332;28;20201;-32
2022/06/11 07:02:58;;;;;;;2.25;2.05;;;;;;;;;;4995911;28;20193;-29
2022/06/11 07:05:27;;;;;;;2.38;2.17;;;;;;;;;;4994794;28;20202;-32
2022/06/11 07:07:55;;;;;;;2.17;1.90;;;;;;;;;;5013089;28;20216;-33
2022/06/11 07:10:23;;;;;;;2.65;1.70;;;;;;;;;;5012759;28;20292;-34
2022/06/11 07:12:50;;;;;;;4.00;2.00;;;;;;;;;;5005398;28;20225;-33
2022/06/11 07:15:18;;;;;;;3.25;2.00;;;;;;;;;;5009660;28;20282;-32
2022/06/11 07:17:47;;;;;;;1.88;1.50;;;;;;;;;;5006919;28;20237;-31
2022/06/11 07:20:17;;;;;;;2.47;1.90;;;;;;;;;;5014183;28;20204;-30
2022/06/11 07:22:48;;;;;;;1.95;1.58;;;;;;;;;;5015546;28;20565;-30
2022/06/11 07:25:15;;;;;;;2.97;2.00;;;;;;;;;;5016457;28;20189;-30
2022/06/11 07:27:45;;;;;;;2.95;2.05;;;;;;;;;;5007472;28;20230;-32
2022/06/11 07:30:14;;;;;;;2.38;2.17;;;;;;;;;;5006875;28;20202;-31
2022/06/11 07:32:47;;;;;;;1.70;1.60;;;;;;;;;;5006044;28;20696;-32
2022/06/11 07:35:15;;;;;;;5.18;1.92;;;;;;;;;;5007259;28;20202;-32
2022/06/11 07:37:43;;;;;;;2.67;1.98;;;;;;;;;;5013001;28;20229;-30
2022/06/11 07:40:12;;;;;;;7.00;1.83;;;;;;;;;;5007646;28;20211;-32
2022/06/11 07:42:39;;;;;;;1.67;1.60;;;;;;;;;;5002972;28;20198;-29
2022/06/11 07:45:07;;;;;;;2.72;1.55;;;;;;;;;;5013414;28;20194;-34
2022/06/11 07:50:19;;;;;;;4.03;1.77;;;;;;;;;;5002351;28;20200;-32
2022/06/11 07:52:46;;;;;;;1.80;1.70;;;;;;;;;;5014826;28;20229;-32
2022/06/11 07:57:43;;;;;;;1.90;1.55;;;;;;;;;;4980990;28;20247;-36
2022/06/11 08:00:13;;;;;;;2.35;1.73;;;;;;;;;;4981011;28;20203;-32
2022/06/11 08:02:40;;;;;;;1.83;1.50;;;;;;;;;;4977048;28;20293;-34
2022/06/11 08:05:08;;;;;;;2.60;1.75;;;;;;;;;;4990551;28;20208;-33
2022/06/11 08:07:36;;;;;;;2.67;1.70;;;;;;;;;;4992047;28;20222;-35
2022/06/11 08:10:03;;;;;;;1.77;1.55;;;;;;;;;;4990503;28;20207;-34
2022/06/11 08:12:32;;;;;;;2.70;1.60;;;;;;;;;;4991077;28;20232;-35
2022/06/11 08:15:01;;;;;;;3.13;1.83;;;;;;;;;;4983229;28;20217;-33
2022/06/11 08:17:29;;;;;;;1.50;1.40;;;;;;;;;;4977182;28;20223;-33
2022/06/11 08:19:56;;;;;;;4.30;1.60;;;;;;;;;;4981591;28;20233;-32
2022/06/11 08:22:24;;;;;;;1.70;1.60;;;;;;;;;;4989407;28;20230;-32
2022/06/11 08:24:51;;;;;;;2.10;1.38;;;;;;;;;;4986303;28;20211;-33
2022/06/11 08:27:18;;;;;;;1.42;1.38;;;;;;;;;;4980754;28;20227;-34
2022/06/11 08:29:45;;;;;;;2.03;1.60;;;;;;;;;;4987128;28;20211;-34
2022/06/11 08:32:14;;;;;;;2.33;1.40;;;;;;;;;;4977556;28;20217;-35
2022/06/11 08:34:42;;;;;;;2.65;1.52;;;;;;;;;;4979390;28;20274;-33
2022/06/11 08:37:11;;;;;;;3.45;1.67;;;;;;;;;;4995323;28;20248;-34
2022/06/11 08:39:39;;;;;;;3.83;1.48;;;;;;;;;;4990894;28;20218;-35
2022/06/11 08:42:07;;;;;;;1.80;1.70;;;;;;;;;;4985653;28;20235;-30
2022/06/11 08:44:37;;;;;;;1.52;1.40;;;;;;;;;;4986548;28;20201;-34
2022/06/11 08:47:06;;;;;;;2.50;1.45;;;;;;;;;;4989897;28;20218;-41
2022/06/11 08:49:38;;;;;;;2.65;1.58;;;;;;;;;;4985885;28;20286;-34
2022/06/11 08:52:08;;;;;;;10.15;2.00;;;;;;;;;;4987441;28;20196;-34
2022/06/11 08:54:40;;;;;;;1.70;1.30;;;;;;;;;;4994315;28;20305;-32
2022/06/11 08:57:12;;;;;;;2.25;1.58;;;;;;;;;;4981568;28;20321;-36
2022/06/11 08:59:53;;;;;;;2.58;1.15;;;;;;;;;;4982639;28;20244;-33
2022/06/11 09:02:32;;;;;;;1.88;1.58;;;;;;;;;;4981284;28;20205;-34
2022/06/11 09:05:07;;;;;;;1.83;1.30;;;;;;;;;;4987281;28;20201;-32
2022/06/11 09:07:46;;;;;;;1.38;1.27;;;;;;;;;;4989974;28;20238;-34
2022/06/11 09:10:35;;;;;;;3.60;1.80;;;;;;;;;;4986523;28;20204;-33
2022/06/11 09:13:13;;;;;;;1.58;1.42;;;;;;;;;;4983991;28;20221;-34
2022/06/11 09:15:46;;;;;;;5.15;1.40;;;;;;;;;;4973988;28;20439;-31
2022/06/11 09:18:37;;;;;;;1.80;1.50;;;;;;;;;;4978852;28;20205;-31
2022/06/11 09:21:12;;;;;;;1.30;1.20;;;;;;;;;;4983404;28;20220;-34
2022/06/11 09:23:53;;;;;;;2.15;1.30;;;;;;;;;;4993843;28;20287;-34
2022/06/11 09:26:28;;;;;;;1.55;1.17;;;;;;;;;;4983780;28;20227;-32
2022/06/11 09:29:06;;;;;;;1.90;1.30;;;;;;;;;;4986028;28;20252;-29
2022/06/11 09:31:38;;;;;;;5.60;1.40;;;;;;;;;;4981329;28;20209;-34
2022/06/11 09:34:10;;;;;;;2.03;1.35;;;;;;;;;;4975552;28;20246;-29
2022/06/11 09:36:40;;;;;;;1.40;1.23;;;;;;;;;;4982953;28;20327;-32
2022/06/11 09:39:12;;;;;;;1.65;1.30;;;;;;;;;;4993662;28;20214;-36
2022/06/11 09:41:43;;;;;;;1.60;1.40;;;;;;;;;;4987189;28;20261;-33
2022/06/11 09:44:17;;;;;;;1.17;1.08;;;;;;;;;;4988124;28;20202;-27
2022/06/11 09:46:46;;;;;;;1.23;0.77;;;;;;;;;;4977008;28;20321;-29
2022/06/11 09:49:20;;;;;;;1.23;1.10;;;;;;;;;;4979141;28;20231;-37
2022/06/11 09:51:52;;;;;;;4.78;1.25;;;;;;;;;;4984505;28;20263;-31
2022/06/11 09:54:32;;;;;;;2.40;1.50;;;;;;;;;;4994444;28;20258;-41
2022/06/11 09:57:06;;;;;;;1.85;1.00;;;;;;;;;;4991552;28;20233;-33
2022/06/11 09:59:43;;;;;;;1.38;1.27;;;;;;;;;;4977895;28;20350;-36
2022/06/11 10:02:22;;;;;;;6.28;1.50;;;;;;;;;;4986279;28;20240;-36
2022/06/11 10:04:50;;;;;;;2.15;1.02;;;;;;;;;;4981320;28;20200;-31
2022/06/11 10:07:21;;;;;;;1.80;1.40;;;;;;;;;;4993969;28;20227;-33
2022/06/11 10:09:51;;;;;;;1.02;0.98;;;;;;;;;;4985965;28;20217;-34
2022/06/11 10:12:20;;;;;;;1.17;1.00;;;;;;;;;;4996642;28;20260;-34
2022/06/11 10:14:50;;;;;;;2.75;1.10;;;;;;;;;;4978689;28;20330;-36
2022/06/11 10:17:19;;;;;;;3.25;1.25;;;;;;;;;;4984800;28;20229;-35
2022/06/11 10:19:49;;;;;;;2.88;1.10;;;;;;;;;;4987808;28;20209;-29
2022/06/11 10:22:18;;;;;;;1.95;1.20;;;;;;;;;;4993290;28;20208;-40
2022/06/11 10:24:54;;;;;;;2.08;1.13;;;;;;;;;;4989900;28;20299;-33
2022/06/11 10:27:23;;;;;;;2.85;1.10;;;;;;;;;;4978873;28;20256;-32
2022/06/11 10:29:51;;;;;;;2.78;1.13;;;;;;;;;;4983813;28;20208;-36
2022/06/11 10:32:22;;;;;;;1.58;1.20;;;;;;;;;;4989736;28;20238;-31
2022/06/11 10:34:54;;;;;;;1.33;0.88;;;;;;;;;;4976471;28;20224;-30
2022/06/11 10:37:23;;;;;;;2.22;1.27;;;;;;;;;;4988687;28;20228;-28
2022/06/11 10:39:54;;;;;;;2.35;1.13;;;;;;;;;;4988322;28;20212;-34
2022/06/11 10:42:27;;;;;;;3.60;1.38;;;;;;;;;;4978300;28;20208;-32
2022/06/11 10:44:55;;;;;;;2.33;1.25;;;;;;;;;;4990943;28;20191;-40
2022/06/11 10:47:24;;;;;;;1.73;1.17;;;;;;;;;;4989488;28;20303;-33
2022/06/11 10:49:52;;;;;;;1.40;0.90;;;;;;;;;;4989925;28;20211;-30
2022/06/11 10:52:31;;;;;;;1.42;1.30;;;;;;;;;;4991100;28;20200;-35
2022/06/11 10:54:59;;;;;;;2.50;1.08;;;;;;;;;;4995603;28;20231;-36
2022/06/11 10:57:29;;;;;;;2.88;1.17;;;;;;;;;;4985752;28;20243;-31
2022/06/11 11:00:00;;;;;;;3.92;1.23;;;;;;;;;;4998865;28;20200;-34
2022/06/11 11:02:30;;;;;;;1.45;1.10;;;;;;;;;;4993236;28;20204;-40
2022/06/11 11:04:58;;;;;;;1.10;1.05;;;;;;;;;;4990296;28;20204;-30
2022/06/11 11:07:26;;;;;;;2.25;1.23;;;;;;;;;;4994963;28;20232;-34
2022/06/11 11:09:58;;;;;;;1.63;1.10;;;;;;;;;;4989025;28;20204;-36
2022/06/11 11:12:28;;;;;;;3.90;1.40;;;;;;;;;;4991033;28;20196;-33
2022/06/11 11:15:04;;;;;;;1.10;1.10;;;;;;;;;;4997201;28;20223;-36
2022/06/11 11:17:46;;;;;;;2.58;1.20;;;;;;;;;;4996088;28;20223;-36
2022/06/11 11:20:37;;;;;;;1.20;1.10;;;;;;;;;;4993899;28;20207;-31
2022/06/11 11:23:09;;;;;;;2.67;1.20;;;;;;;;;;4980575;28;20196;-34
2022/06/11 11:25:38;;;;;;;1.23;0.98;;;;;;;;;;4978790;28;20208;-31
2022/06/11 11:28:08;;;;;;;2.35;1.08;;;;;;;;;;4988880;28;20230;-32
2022/06/11 11:30:36;;;;;;;2.70;1.15;;;;;;;;;;4983246;28;20205;-33
2022/06/11 11:33:14;;;;;;;5.10;1.48;;;;;;;;;;4996502;28;20208;-34
2022/06/11 11:35:42;;;;;;;1.70;1.10;;;;;;;;;;4978754;28;20192;-30
2022/06/11 11:38:16;;;;;;;2.25;1.02;;;;;;;;;;4980097;28;20211;-28
2022/06/11 11:40:50;;;;;;;2.22;1.20;;;;;;;;;;4981347;28;20200;-36
2022/06/11 11:43:19;;;;;;;3.58;1.20;;;;;;;;;;4984476;28;20207;-31
2022/06/11 11:45:47;;;;;;;2.65;1.33;;;;;;;;;;4983139;28;20214;-30
2022/06/11 11:48:16;;;;;;;2.50;1.13;;;;;;;;;;4984551;28;20205;-36
2022/06/11 11:50:43;;;;;;;2.30;1.02;;;;;;;;;;4981100;28;20209;-33
2022/06/11 11:53:16;;;;;;;1.20;1.10;;;;;;;;;;4979898;28;20213;-34
2022/06/11 11:55:45;;;;;;;3.03;1.20;;;;;;;;;;4976158;28;20216;-34
2022/06/11 11:58:16;;;;;;;1.90;0.93;;;;;;;;;;4989422;28;20200;-36
2022/06/11 12:00:56;;;;;;;1.23;0.90;;;;;;;;;;4994052;28;20212;-33
2022/06/11 12:03:24;;;;;;;2.40;1.00;;;;;;;;;;4981376;28;20231;-35
2022/06/11 12:05:53;;;;;;;1.83;1.00;;;;;;;;;;4984625;28;20233;-33
2022/06/11 12:08:23;;;;;;;1.77;1.00;;;;;;;;;;4976715;28;20209;-32
2022/06/11 12:10:51;;;;;;;0.93;0.93;;;;;;;;;;4974041;28;20213;-34
2022/06/11 12:13:25;;;;;;;3.28;1.10;;;;;;;;;;4986950;28;20234;-34
2022/06/11 12:16:12;;;;;;;3.92;1.50;;;;;;;;;;4975742;28;20232;-37
2022/06/11 12:18:42;;;;;;;1.20;1.10;;;;;;;;;;4984047;28;20205;-33
2022/06/11 12:21:13;;;;;;;1.63;1.00;;;;;;;;;;4981899;28;20204;-38
2022/06/11 12:23:43;;;;;;;1.52;1.00;;;;;;;;;;4973966;28;20216;-36
2022/06/11 12:26:13;;;;;;;1.98;1.00;;;;;;;;;;4979557;28;20226;-34
2022/06/11 12:28:43;;;;;;;3.00;1.77;;;;;;;;;;4985642;28;20234;-34
2022/06/11 12:31:12;;;;;;;2.40;1.23;;;;;;;;;;4990899;28;20209;-33
2022/06/11 12:33:42;;;;;;;3.90;1.25;;;;;;;;;;4977446;28;20299;-31
2022/06/11 12:36:11;;;;;;;3.28;1.50;;;;;;;;;;4980353;28;20227;-31
2022/06/11 12:38:41;;;;;;;1.58;1.40;;;;;;;;;;4994892;28;20221;-30
2022/06/11 12:41:17;;;;;;;1.38;1.15;;;;;;;;;;4987702;28;20212;-37
2022/06/11 12:43:46;;;;;;;1.13;0.90;;;;;;;;;;4988042;28;20217;-31
2022/06/11 12:46:18;;;;;;;2.25;1.17;;;;;;;;;;4980211;28;20233;-35
2022/06/11 12:48:49;;;;;;;2.55;1.23;;;;;;;;;;4977343;28;20210;-34
2022/06/11 12:51:20;;;;;;;1.48;1.27;;;;;;;;;;4981577;28;20190;-35
2022/06/11 12:53:54;;;;;;;1.20;0.90;;;;;;;;;;4976654;28;20309;-39
2022/06/11 12:56:28;;;;;;;2.08;1.50;;;;;;;;;;4976438;28;20262;-36
2022/06/11 12:59:12;;;;;;;2.40;1.20;;;;;;;;;;4983087;28;20253;-32
2022/06/11 13:01:44;;;;;;;3.47;1.50;;;;;;;;;;4987030;28;20206;-33
2022/06/11 13:04:26;;;;;;;4.78;1.20;;;;;;;;;;4985678;28;20203;-35
2022/06/11 13:06:59;;;;;;;1.52;1.20;;;;;;;;;;4973293;28;20235;-31
2022/06/11 13:09:30;;;;;;;1.50;1.20;;;;;;;;;;4974715;28;20213;-37
2022/06/11 13:12:03;;;;;;;1.50;1.00;;;;;;;;;;4985047;28;20222;-33
2022/06/11 13:14:37;;;;;;;2.42;1.00;;;;;;;;;;4982747;28;20211;-35
2022/06/11 13:17:13;;;;;;;1.33;1.23;;;;;;;;;;4975301;28;20231;-35
2022/06/11 13:19:43;;;;;;;1.58;1.02;;;;;;;;;;4976413;28;20203;-34
2022/06/11 13:22:14;;;;;;;2.58;1.10;;;;;;;;;;4986097;28;20265;-31
2022/06/11 13:24:43;;;;;;;2.97;1.25;;;;;;;;;;4993214;28;20207;-29
2022/06/11 13:27:17;;;;;;;2.33;1.15;;;;;;;;;;4980889;28;20249;-31
2022/06/11 13:29:49;;;;;;;1.58;1.27;;;;;;;;;;4985138;28;20217;-33
2022/06/11 13:32:23;;;;;;;1.02;0.82;;;;;;;;;;4983491;28;20202;-37
2022/06/11 13:34:56;;;;;;;2.60;1.02;;;;;;;;;;4993050;28;20217;-32
2022/06/11 13:37:29;;;;;;;3.95;0.88;;;;;;;;;;4983904;28;20315;-33
2022/06/11 13:40:02;;;;;;;1.08;0.98;;;;;;;;;;5001825;28;20221;-32
2022/06/11 13:42:35;;;;;;;1.42;1.23;;;;;;;;;;4993682;28;20227;-36
2022/06/11 13:45:21;;;;;;;2.05;1.23;;;;;;;;;;4980369;28;20197;-34
2022/06/11 13:47:58;;;;;;;1.48;0.98;;;;;;;;;;4990272;28;20230;-35
2022/06/11 13:50:33;;;;;;;2.83;1.10;;;;;;;;;;4999534;28;20255;-37
2022/06/11 13:55:55;;;;;;;1.58;1.27;;;;;;;;;;4983743;28;20371;-30
2022/06/11 13:58:35;;;;;;;2.35;1.05;;;;;;;;;;4985057;28;20213;-30
2022/06/11 14:01:09;;;;;;;2.38;1.40;;;;;;;;;;4985713;28;20288;-33
2022/06/11 14:03:55;;;;;;;10.48;4.70;;;;;;;;;;4999159;28;20206;-33
2022/06/11 14:06:24;;;;;;;3.72;1.77;;;;;;;;;;4999398;28;20235;-35
2022/06/11 14:11:40;;;;;;;0.90;0.90;;;;;;;;;;5000395;28;20215;-42
2022/06/11 14:14:31;;;;;;;1.20;1.10;;;;;;;;;;5005314;28;20206;-44
2022/06/11 14:16:58;;;;;;;1.30;1.15;;;;;;;;;;5008080;28;20225;-43
2022/06/11 14:19:41;;;;;;;1.60;1.50;;;;;;;;;;5005146;28;20215;-44
2022/06/11 14:22:43;;;;;;;2.42;1.08;;;;;;;;;;5011257;28;20304;-42
2022/06/11 14:25:10;;;;;;;1.45;1.13;;;;;;;;;;5028297;28;20198;-43
2022/06/11 14:27:39;;;;;;;1.17;1.08;;;;;;;;;;5004603;28;20502;-44
2022/06/11 14:30:21;;;;;;;1.88;1.08;;;;;;;;;;5000096;28;20202;-44
2022/06/11 14:33:00;;;;;;;1.20;1.10;;;;;;;;;;4997705;28;20297;-42
2022/06/11 14:35:34;;;;;;;0.98;0.93;;;;;;;;;;5005056;28;20212;-40
2022/06/11 14:38:18;;;;;;;1.15;1.00;;;;;;;;;;4993671;28;20289;-44
2022/06/11 14:40:45;;;;;;;2.55;1.10;;;;;;;;;;4998002;28;20297;-44
2022/06/11 14:43:13;;;;;;;2.03;1.20;;;;;;;;;;5012029;28;20292;-43
2022/06/11 14:45:51;;;;;;;1.70;1.27;;;;;;;;;;5013191;28;20218;-43
2022/06/11 14:48:23;;;;;;;2.53;1.10;;;;;;;;;;4997465;28;20207;-42
2022/06/11 14:51:03;;;;;;;2.20;1.00;;;;;;;;;;4995295;28;20206;-46
2022/06/11 14:53:32;;;;;;;1.25;1.15;;;;;;;;;;5012865;28;20203;-42
2022/06/11 14:56:03;;;;;;;1.10;1.10;;;;;;;;;;4992363;28;20245;-41
2022/06/11 14:58:54;;;;;;;1.40;1.00;;;;;;;;;;5006874;28;20296;-42
2022/06/11 15:01:31;;;;;;;1.98;1.13;;;;;;;;;;5005246;28;20201;-44
2022/06/11 15:04:10;;;;;;;3.25;1.30;;;;;;;;;;4999019;28;20198;-44
2022/06/11 15:06:42;;;;;;;1.05;1.02;;;;;;;;;;5006705;28;20236;-42
2022/06/11 15:09:25;;;;;;;2.85;1.40;;;;;;;;;;5003549;28;20202;-41
2022/06/11 15:11:55;;;;;;;3.28;1.08;;;;;;;;;;5000479;28;20197;-43
2022/06/11 15:14:29;;;;;;;1.58;1.20;;;;;;;;;;5010765;28;20206;-37
2022/06/11 15:17:05;;;;;;;1.40;1.13;;;;;;;;;;5001959;28;20248;-44
2022/06/11 15:19:33;;;;;;;2.47;1.45;;;;;;;;;;4997479;28;20341;-44
2022/06/11 15:22:03;;;;;;;1.50;1.40;;;;;;;;;;5003059;28;20205;-42